createdAt,value
2019-02-05T00:00:54.995Z,10.33
2019-02-05T00:06:01.024Z,34.13
2019-02-05T00:11:06.618Z,39.73
2019-02-05T00:16:12.181Z,33.10
2019-02-05T00:21:16.863Z,32.90
2019-02-05T00:26:22.072Z,50.50
2019-02-05T00:31:27.358Z,84.30
2019-02-05T00:36:33.456Z,29.03
2019-02-05T00:41:38.756Z,42.90
2019-02-05T00:46:43.459Z,41.07
2019-02-05T00:51:48.662Z,26.57
2019-02-05T00:56:53.957Z,33.37
2019-02-05T01:02:00.048Z,17.27
2019-02-05T01:07:05.567Z,26.90
2019-02-05T01:12:11.471Z,18.97
2019-02-05T01:17:16.911Z,21.47
2019-02-05T01:22:22.776Z,24.47
2019-02-05T01:27:28.107Z,48.17
2019-02-05T01:32:33.383Z,24.37
2019-02-05T01:37:39.059Z,21.90
2019-02-05T01:42:44.348Z,25.57
2019-02-05T01:47:49.754Z,19.37
2019-02-05T01:52:55.151Z,21.30
2019-02-05T01:58:00.747Z,20.63
2019-02-05T02:03:06.719Z,17.03
2019-02-05T02:08:12.107Z,28.90
2019-02-05T02:13:17.412Z,14.77
2019-02-05T02:18:22.103Z,22.03
2019-02-05T02:23:27.312Z,18.60
2019-02-05T02:28:32.599Z,38.43
2019-02-05T02:33:37.606Z,15.00
2019-02-05T02:38:42.803Z,10.97
2019-02-05T02:43:48.103Z,32.20
2019-02-05T02:48:53.380Z,16.60
2019-02-05T02:53:58.056Z,2.27
2019-02-05T02:59:03.286Z,13.40
2019-02-05T03:04:08.574Z,23.30
2019-02-05T03:09:14.256Z,9.03
2019-02-05T03:14:19.552Z,15.27
2019-02-05T03:19:24.844Z,15.03
2019-02-05T03:24:30.201Z,25.77
2019-02-05T03:29:34.880Z,32.93
2019-02-05T03:34:40.127Z,21.03
2019-02-05T03:39:45.547Z,29.70
2019-02-05T03:44:50.879Z,28.80
2019-02-05T03:49:55.588Z,44.03
2019-02-05T03:55:53.276Z,30.00
2019-02-05T04:01:45.835Z,36.73
2019-02-05T04:07:31.859Z,24.73
2019-02-05T04:13:16.221Z,23.67
2019-02-05T04:19:10.646Z,16.43
2019-02-05T04:24:49.540Z,36.57
2019-02-05T04:30:13.247Z,22.33
2019-02-05T04:35:53.650Z,11.90
2019-02-05T04:41:11.811Z,66.70
2019-02-05T04:46:58.303Z,36.47
2019-02-05T04:52:22.287Z,24.80
2019-02-05T04:57:40.162Z,49.73
2019-02-05T05:03:22.696Z,37.83
2019-02-05T05:08:52.359Z,43.87
2019-02-05T05:13:57.067Z,11.57
2019-02-05T05:19:02.718Z,33.83
2019-02-05T05:24:09.823Z,35.47
2019-02-05T05:29:15.165Z,34.57
2019-02-05T05:34:20.495Z,16.17
2019-02-05T05:39:25.865Z,38.10
2019-02-05T05:44:31.223Z,26.27
2019-02-05T05:49:36.430Z,15.37
2019-02-05T05:54:41.624Z,34.07
2019-02-05T05:59:46.978Z,22.00
2019-02-05T06:04:52.302Z,27.10
2019-02-05T06:09:57.624Z,44.93
2019-02-05T06:15:03.255Z,60.93
2019-02-05T06:20:11.892Z,35.77
2019-02-05T06:25:16.790Z,15.03
2019-02-05T06:30:21.568Z,40.77
2019-02-05T06:35:26.807Z,21.80
2019-02-05T06:40:32.232Z,27.97
2019-02-05T06:45:36.962Z,36.00
2019-02-05T06:50:42.211Z,21.73
2019-02-05T06:55:46.939Z,17.17
2019-02-05T07:00:52.219Z,33.97
2019-02-05T07:05:57.549Z,31.63
2019-02-05T07:11:02.884Z,26.23
2019-02-05T07:16:09.295Z,31.90
2019-02-05T07:21:14.623Z,11.00
2019-02-05T07:26:19.950Z,41.30
2019-02-05T07:31:25.295Z,34.63
2019-02-05T07:36:30.003Z,22.97
2019-02-05T07:41:36.000Z,40.80
2019-02-05T07:46:41.385Z,29.40
2019-02-05T07:51:46.100Z,26.27
2019-02-05T07:56:51.660Z,20.73
2019-02-05T08:01:56.404Z,23.70
2019-02-05T08:07:01.633Z,31.37
2019-02-05T08:12:06.447Z,29.83
2019-02-05T08:17:11.767Z,42.83
2019-02-05T08:22:17.104Z,28.00
2019-02-05T08:27:22.447Z,36.03
2019-02-05T08:32:27.158Z,27.80
2019-02-05T08:37:32.795Z,26.33
2019-02-05T08:42:37.514Z,36.07
2019-02-05T08:47:42.756Z,22.93
2019-02-05T08:52:48.087Z,26.40
2019-02-05T08:57:54.359Z,30.53
2019-02-05T09:02:59.828Z,29.10
2019-02-05T09:08:05.323Z,36.63
2019-02-05T09:13:10.034Z,36.57
2019-02-05T09:18:15.364Z,23.17
2019-02-05T09:23:20.063Z,34.70
2019-02-05T09:28:25.300Z,23.87
2019-02-05T09:33:30.027Z,41.73
2019-02-05T09:38:34.651Z,30.90
2019-02-05T09:43:40.370Z,30.43
2019-02-05T09:48:46.295Z,46.63
2019-02-05T09:53:50.914Z,34.50
2019-02-05T09:58:57.155Z,25.17
2019-02-05T10:04:01.912Z,48.37
2019-02-05T10:09:09.596Z,48.80
2019-02-05T10:14:14.454Z,52.97
2019-02-05T10:19:19.557Z,42.93
2019-02-05T10:24:25.242Z,38.13
2019-02-05T10:29:30.203Z,44.33
2019-02-05T10:34:35.365Z,45.77
2019-02-05T10:39:40.347Z,53.13
2019-02-05T10:44:45.515Z,48.07
2019-02-05T10:49:51.088Z,57.33
2019-02-05T10:54:56.173Z,64.77
2019-02-05T11:00:08.589Z,45.90
2019-02-05T11:05:08.731Z,49.10
2019-02-05T11:10:15.253Z,60.37
2019-02-05T11:15:21.670Z,51.87
2019-02-05T11:20:27.206Z,55.67
2019-02-05T11:25:32.342Z,46.97
2019-02-05T11:30:41.342Z,47.17
2019-02-05T11:35:47.143Z,47.50
2019-02-05T11:40:52.875Z,54.87
2019-02-05T11:45:58.566Z,47.70
2019-02-05T11:51:04.015Z,57.00
2019-02-05T11:56:09.794Z,60.87
2019-02-05T12:01:24.154Z,59.20
2019-02-05T12:06:29.487Z,55.10
2019-02-05T12:11:35.071Z,60.00
2019-02-05T12:16:41.197Z,56.97
2019-02-05T12:21:46.830Z,65.33
2019-02-05T12:26:52.201Z,57.17
2019-02-05T12:31:57.692Z,53.63
2019-02-05T12:37:03.151Z,69.70
2019-02-05T12:42:07.785Z,71.43
2019-02-05T12:47:12.406Z,57.27
2019-02-05T12:52:17.675Z,69.90
2019-02-05T12:57:22.418Z,69.03
2019-02-05T13:02:27.087Z,58.90
2019-02-05T13:07:32.359Z,69.97
2019-02-05T13:12:37.699Z,85.73
2019-02-05T13:17:44.106Z,88.90
2019-02-05T13:22:49.539Z,30.50
2019-02-05T13:27:54.666Z,63.77
2019-02-05T13:33:00.010Z,69.97
2019-02-05T13:38:06.952Z,64.73
2019-02-05T13:43:13.122Z,79.87
2019-02-05T13:48:18.814Z,73.97
2019-02-05T13:53:24.439Z,68.33
2019-02-05T13:58:30.431Z,52.00
2019-02-05T14:03:35.860Z,82.53
2019-02-05T14:08:41.716Z,60.90
2019-02-05T14:13:47.439Z,64.60
2019-02-05T14:18:55.492Z,67.83
2019-02-05T14:23:59.962Z,40.57
2019-02-05T14:29:05.639Z,65.33
2019-02-05T14:34:11.132Z,58.20
2019-02-05T14:39:16.785Z,43.97
2019-02-05T14:44:22.304Z,48.57
2019-02-05T14:49:28.358Z,57.53
2019-02-05T14:54:33.877Z,65.43
2019-02-05T14:59:39.539Z,65.90
2019-02-05T15:04:45.111Z,71.37
2019-02-05T15:09:50.723Z,67.30
2019-02-05T15:14:57.191Z,70.17
2019-02-05T15:20:02.704Z,58.40
2019-02-05T15:25:09.353Z,81.40
2019-02-05T15:30:30.915Z,77.47
2019-02-05T15:35:36.346Z,63.27
2019-02-05T15:40:41.763Z,72.47
2019-02-05T15:45:47.298Z,56.57
2019-02-05T15:50:52.706Z,67.00
2019-02-05T15:55:58.491Z,76.33
2019-02-05T16:01:04.232Z,29.40
2019-02-05T16:06:09.552Z,41.37
2019-02-05T16:11:14.947Z,57.63
2019-02-05T16:16:21.263Z,59.33
2019-02-05T16:21:27.168Z,58.93
2019-02-05T16:26:33.623Z,53.97
2019-02-05T16:31:40.373Z,60.20
2019-02-05T16:36:48.575Z,59.80
2019-02-05T16:41:53.246Z,58.93
2019-02-05T16:46:58.970Z,50.37
2019-02-05T16:52:05.079Z,54.63
2019-02-05T16:57:11.079Z,48.07
2019-02-05T17:02:28.375Z,51.67
2019-02-05T17:07:25.089Z,40.63
2019-02-05T17:12:30.801Z,60.60
2019-02-05T17:17:36.995Z,54.13
2019-02-05T17:22:42.512Z,59.67
2019-02-05T17:27:49.442Z,64.27
2019-02-05T17:32:54.864Z,59.13
2019-02-05T17:38:00.354Z,64.90
2019-02-05T17:43:07.189Z,65.70
2019-02-05T17:48:15.791Z,69.17
2019-02-05T17:53:21.701Z,50.43
2019-02-05T17:58:27.357Z,61.70
2019-02-05T18:03:32.486Z,35.97
2019-02-05T18:08:39.263Z,59.80
2019-02-05T18:13:44.675Z,65.17
2019-02-05T18:18:50.443Z,55.97
2019-02-05T18:23:55.839Z,48.57
2019-02-05T18:29:01.591Z,51.80
2019-02-05T18:34:08.011Z,57.80
2019-02-05T18:39:14.771Z,55.10
2019-02-05T18:44:20.990Z,71.80
2019-02-05T18:49:27.464Z,60.50
2019-02-05T18:54:34.099Z,57.53
2019-02-05T18:59:40.436Z,63.57
2019-02-05T19:04:48.154Z,57.43
2019-02-05T19:09:54.256Z,71.07
2019-02-05T19:15:00.461Z,63.77
2019-02-05T19:20:08.787Z,66.40
2019-02-05T19:25:32.116Z,75.80
2019-02-05T19:30:40.947Z,56.63
2019-02-05T19:35:47.723Z,58.93
2019-02-05T19:40:57.692Z,78.20
2019-02-05T19:46:25.536Z,85.70
2019-02-05T19:51:31.512Z,53.30
2019-02-05T19:56:38.403Z,58.93
2019-02-05T20:01:45.026Z,61.00
2019-02-05T20:06:50.982Z,74.33
2019-02-05T20:11:57.226Z,62.97
2019-02-05T20:17:03.827Z,49.20
2019-02-05T20:22:10.223Z,54.83
2019-02-05T20:27:16.432Z,33.40
2019-02-05T20:32:23.288Z,57.57
2019-02-05T20:37:29.691Z,64.57
2019-02-05T20:42:35.554Z,64.90
2019-02-05T20:47:41.252Z,64.73
2019-02-05T20:52:47.218Z,73.13
2019-02-05T20:57:53.183Z,73.07
2019-02-05T21:02:58.963Z,67.43
2019-02-05T21:08:04.875Z,74.57
2019-02-05T21:13:11.059Z,62.60
2019-02-05T21:18:17.810Z,64.23
2019-02-05T21:23:22.738Z,70.40
2019-02-05T21:28:28.774Z,75.60
2019-02-05T21:33:34.399Z,79.17
2019-02-05T21:38:40.415Z,68.73
2019-02-05T21:43:46.126Z,83.87
2019-02-05T21:48:51.736Z,70.70
2019-02-05T21:53:57.292Z,74.10
2019-02-05T21:59:02.576Z,54.20
2019-02-05T22:04:10.079Z,66.93
2019-02-05T22:09:15.190Z,75.00
2019-02-05T22:14:20.712Z,72.57
2019-02-05T22:19:25.441Z,74.97
2019-02-05T22:24:30.659Z,55.33
2019-02-05T22:29:37.003Z,63.87
2019-02-05T22:34:42.407Z,79.03
2019-02-05T22:39:48.075Z,81.73
2019-02-05T22:44:54.280Z,83.47
2019-02-05T22:49:59.906Z,93.37
2019-02-05T22:55:06.148Z,96.50
2019-02-05T23:00:50.614Z,72.77
2019-02-05T23:06:25.077Z,93.87
2019-02-05T23:12:13.485Z,66.97
2019-02-05T23:17:20.282Z,89.37
2019-02-05T23:22:25.872Z,70.13
2019-02-05T23:27:31.295Z,82.97
2019-02-05T23:32:36.636Z,82.37
2019-02-05T23:37:41.991Z,67.30
2019-02-05T23:42:47.351Z,84.83
2019-02-05T23:47:52.683Z,104.13
2019-02-05T23:52:58.468Z,77.47
2019-02-05T23:58:03.743Z,78.50
